sensor_id;sensor_type;location;lat;lon;timestamp;temperature;humidity
14908;DHT22;7545;52.092;7.006;2022-08-21T00:01:43;18.90;99.90
14908;DHT22;7545;52.092;7.006;2022-08-21T00:04:10;18.80;99.90
14908;DHT22;7545;52.092;7.006;2022-08-21T00:06:37;18.80;99.90
14908;DHT22;7545;52.092;7.006;2022-08-21T00:09:05;18.70;99.90
14908;DHT22;7545;52.092;7.006;2022-08-21T00:11:31;18.70;99.90
14908;DHT22;7545;52.092;7.006;2022-08-21T00:13:57;18.70;99.90
14908;DHT22;7545;52.092;7.006;2022-08-21T00:16:22;18.70;99.90
14908;DHT22;7545;52.092;7.006;2022-08-21T00:18:49;18.70;99.90
14908;DHT22;7545;52.092;7.006;2022-08-21T00:21:15;18.60;99.90
14908;DHT22;7545;52.092;7.006;2022-08-21T00:23:42;18.60;99.90
14908;DHT22;7545;52.092;7.006;2022-08-21T00:26:08;18.60;99.90
14908;DHT22;7545;52.092;7.006;2022-08-21T00:28:33;18.60;99.90
14908;DHT22;7545;52.092;7.006;2022-08-21T00:30:59;18.50;99.90
14908;DHT22;7545;52.092;7.006;2022-08-21T00:33:26;18.50;99.90
14908;DHT22;7545;52.092;7.006;2022-08-21T00:35:51;18.50;99.90
14908;DHT22;7545;52.092;7.006;2022-08-21T00:38:18;18.50;99.90
14908;DHT22;7545;52.092;7.006;2022-08-21T00:40:55;18.50;99.90
14908;DHT22;7545;52.092;7.006;2022-08-21T00:43:26;18.40;99.90
14908;DHT22;7545;52.092;7.006;2022-08-21T00:45:53;18.40;99.90
14908;DHT22;7545;52.092;7.006;2022-08-21T00:48:20;18.40;99.90
14908;DHT22;7545;52.092;7.006;2022-08-21T00:51:05;18.30;99.90
14908;DHT22;7545;52.092;7.006;2022-08-21T00:53:33;18.30;99.90
14908;DHT22;7545;52.092;7.006;2022-08-21T00:56:01;18.30;99.90
14908;DHT22;7545;52.092;7.006;2022-08-21T00:58:29;18.30;99.90
14908;DHT22;7545;52.092;7.006;2022-08-21T01:00:56;18.20;99.90
14908;DHT22;7545;52.092;7.006;2022-08-21T01:03:23;18.20;99.90
14908;DHT22;7545;52.092;7.006;2022-08-21T01:05:51;18.20;99.90
14908;DHT22;7545;52.092;7.006;2022-08-21T01:08:18;18.20;99.90
14908;DHT22;7545;52.092;7.006;2022-08-21T01:10:44;18.20;99.90
14908;DHT22;7545;52.092;7.006;2022-08-21T01:13:14;18.20;99.90
14908;DHT22;7545;52.092;7.006;2022-08-21T01:15:44;18.10;99.90
14908;DHT22;7545;52.092;7.006;2022-08-21T01:18:12;18.10;99.90
14908;DHT22;7545;52.092;7.006;2022-08-21T01:20:42;18.10;99.90
14908;DHT22;7545;52.092;7.006;2022-08-21T01:23:08;18.10;99.90
14908;DHT22;7545;52.092;7.006;2022-08-21T01:25:34;18.10;99.90
14908;DHT22;7545;52.092;7.006;2022-08-21T01:28:04;18.00;99.90
14908;DHT22;7545;52.092;7.006;2022-08-21T01:30:33;18.00;99.90
14908;DHT22;7545;52.092;7.006;2022-08-21T01:33:00;18.00;99.90
14908;DHT22;7545;52.092;7.006;2022-08-21T01:35:26;17.90;99.90
14908;DHT22;7545;52.092;7.006;2022-08-21T01:37:51;17.90;99.90
14908;DHT22;7545;52.092;7.006;2022-08-21T01:40:17;17.90;99.90
14908;DHT22;7545;52.092;7.006;2022-08-21T01:42:44;17.90;99.90
14908;DHT22;7545;52.092;7.006;2022-08-21T01:45:11;17.90;99.90
14908;DHT22;7545;52.092;7.006;2022-08-21T01:47:38;17.90;99.90
14908;DHT22;7545;52.092;7.006;2022-08-21T01:50:05;17.90;99.90
14908;DHT22;7545;52.092;7.006;2022-08-21T01:52:32;17.80;99.90
14908;DHT22;7545;52.092;7.006;2022-08-21T01:54:57;17.80;99.90
14908;DHT22;7545;52.092;7.006;2022-08-21T01:57:24;17.80;99.90
14908;DHT22;7545;52.092;7.006;2022-08-21T01:59:49;17.80;99.90
14908;DHT22;7545;52.092;7.006;2022-08-21T02:02:15;17.80;99.90
14908;DHT22;7545;52.092;7.006;2022-08-21T02:04:41;17.70;99.90
14908;DHT22;7545;52.092;7.006;2022-08-21T02:07:06;17.70;99.90
14908;DHT22;7545;52.092;7.006;2022-08-21T02:09:32;17.70;99.90
14908;DHT22;7545;52.092;7.006;2022-08-21T02:11:59;17.70;99.90
14908;DHT22;7545;52.092;7.006;2022-08-21T02:14:24;17.70;99.90
14908;DHT22;7545;52.092;7.006;2022-08-21T02:16:50;17.70;99.90
14908;DHT22;7545;52.092;7.006;2022-08-21T02:19:16;17.60;99.90
14908;DHT22;7545;52.092;7.006;2022-08-21T02:21:42;17.60;99.90
14908;DHT22;7545;52.092;7.006;2022-08-21T02:24:09;17.50;99.90
14908;DHT22;7545;52.092;7.006;2022-08-21T02:26:34;17.50;99.90
14908;DHT22;7545;52.092;7.006;2022-08-21T02:29:01;17.50;99.90
14908;DHT22;7545;52.092;7.006;2022-08-21T02:31:26;17.50;99.90
14908;DHT22;7545;52.092;7.006;2022-08-21T02:33:52;17.50;99.90
14908;DHT22;7545;52.092;7.006;2022-08-21T02:36:18;17.40;99.90
14908;DHT22;7545;52.092;7.006;2022-08-21T02:38:44;17.40;99.90
14908;DHT22;7545;52.092;7.006;2022-08-21T02:41:15;17.40;99.90
14908;DHT22;7545;52.092;7.006;2022-08-21T02:43:41;17.40;99.90
14908;DHT22;7545;52.092;7.006;2022-08-21T02:46:08;17.40;99.90
14908;DHT22;7545;52.092;7.006;2022-08-21T02:48:34;17.30;99.90
14908;DHT22;7545;52.092;7.006;2022-08-21T02:51:03;17.40;99.90
14908;DHT22;7545;52.092;7.006;2022-08-21T02:53:31;17.30;99.90
14908;DHT22;7545;52.092;7.006;2022-08-21T02:55:58;17.30;99.90
14908;DHT22;7545;52.092;7.006;2022-08-21T02:58:28;17.30;99.90
14908;DHT22;7545;52.092;7.006;2022-08-21T03:00:55;17.30;99.90
14908;DHT22;7545;52.092;7.006;2022-08-21T03:03:21;17.20;99.90
14908;DHT22;7545;52.092;7.006;2022-08-21T03:05:48;17.20;99.90
14908;DHT22;7545;52.092;7.006;2022-08-21T03:08:15;17.20;99.90
14908;DHT22;7545;52.092;7.006;2022-08-21T03:10:45;17.20;99.90
14908;DHT22;7545;52.092;7.006;2022-08-21T03:13:12;17.10;99.90
14908;DHT22;7545;52.092;7.006;2022-08-21T03:15:38;17.10;99.90
14908;DHT22;7545;52.092;7.006;2022-08-21T03:18:06;17.10;99.90
14908;DHT22;7545;52.092;7.006;2022-08-21T03:20:34;17.10;99.90
14908;DHT22;7545;52.092;7.006;2022-08-21T03:23:01;17.10;99.90
14908;DHT22;7545;52.092;7.006;2022-08-21T03:25:30;17.00;99.90
14908;DHT22;7545;52.092;7.006;2022-08-21T03:27:59;17.00;99.90
14908;DHT22;7545;52.092;7.006;2022-08-21T03:30:25;17.00;99.90
14908;DHT22;7545;52.092;7.006;2022-08-21T03:32:51;17.00;99.90
14908;DHT22;7545;52.092;7.006;2022-08-21T03:35:18;17.00;99.90
14908;DHT22;7545;52.092;7.006;2022-08-21T03:37:46;17.00;99.90
14908;DHT22;7545;52.092;7.006;2022-08-21T03:40:15;17.00;99.90
14908;DHT22;7545;52.092;7.006;2022-08-21T03:42:41;17.00;99.90
14908;DHT22;7545;52.092;7.006;2022-08-21T03:45:07;16.90;99.90
14908;DHT22;7545;52.092;7.006;2022-08-21T03:47:33;17.00;99.90
14908;DHT22;7545;52.092;7.006;2022-08-21T03:49:59;16.90;99.90
14908;DHT22;7545;52.092;7.006;2022-08-21T03:52:25;16.90;99.90
14908;DHT22;7545;52.092;7.006;2022-08-21T03:54:50;16.90;99.90
14908;DHT22;7545;52.092;7.006;2022-08-21T03:57:16;16.90;99.90
14908;DHT22;7545;52.092;7.006;2022-08-21T03:59:42;16.80;99.90
14908;DHT22;7545;52.092;7.006;2022-08-21T04:02:10;16.90;99.90
14908;DHT22;7545;52.092;7.006;2022-08-21T04:04:36;16.80;99.90
14908;DHT22;7545;52.092;7.006;2022-08-21T04:07:02;16.80;99.90
14908;DHT22;7545;52.092;7.006;2022-08-21T04:09:28;16.80;99.90
14908;DHT22;7545;52.092;7.006;2022-08-21T04:11:55;16.80;99.90
14908;DHT22;7545;52.092;7.006;2022-08-21T04:14:21;16.80;99.90
14908;DHT22;7545;52.092;7.006;2022-08-21T04:16:48;16.70;99.90
14908;DHT22;7545;52.092;7.006;2022-08-21T04:19:13;16.70;99.90
14908;DHT22;7545;52.092;7.006;2022-08-21T04:21:40;16.70;99.90
14908;DHT22;7545;52.092;7.006;2022-08-21T04:24:08;16.70;99.90
14908;DHT22;7545;52.092;7.006;2022-08-21T04:26:36;16.70;99.90
14908;DHT22;7545;52.092;7.006;2022-08-21T04:29:03;16.70;99.90
14908;DHT22;7545;52.092;7.006;2022-08-21T04:31:28;16.70;99.90
14908;DHT22;7545;52.092;7.006;2022-08-21T04:33:54;16.70;99.90
14908;DHT22;7545;52.092;7.006;2022-08-21T04:36:22;16.60;99.90
14908;DHT22;7545;52.092;7.006;2022-08-21T04:38:48;16.60;99.90
14908;DHT22;7545;52.092;7.006;2022-08-21T04:41:14;16.60;99.90
14908;DHT22;7545;52.092;7.006;2022-08-21T04:43:39;16.60;99.90
14908;DHT22;7545;52.092;7.006;2022-08-21T04:46:05;16.60;99.90
14908;DHT22;7545;52.092;7.006;2022-08-21T04:48:31;16.70;99.90
14908;DHT22;7545;52.092;7.006;2022-08-21T04:51:13;16.60;99.90
14908;DHT22;7545;52.092;7.006;2022-08-21T04:53:49;16.60;99.90
14908;DHT22;7545;52.092;7.006;2022-08-21T04:56:27;16.60;99.90
14908;DHT22;7545;52.092;7.006;2022-08-21T04:58:57;16.60;99.90
14908;DHT22;7545;52.092;7.006;2022-08-21T05:01:25;16.60;99.90
14908;DHT22;7545;52.092;7.006;2022-08-21T05:03:59;16.60;99.90
14908;DHT22;7545;52.092;7.006;2022-08-21T05:06:25;16.60;99.90
14908;DHT22;7545;52.092;7.006;2022-08-21T05:08:53;16.70;99.90
14908;DHT22;7545;52.092;7.006;2022-08-21T05:11:20;16.70;99.90
14908;DHT22;7545;52.092;7.006;2022-08-21T05:13:48;16.60;99.90
14908;DHT22;7545;52.092;7.006;2022-08-21T05:16:13;16.70;99.90
14908;DHT22;7545;52.092;7.006;2022-08-21T05:18:39;16.70;99.90
14908;DHT22;7545;52.092;7.006;2022-08-21T05:21:05;16.70;99.90
14908;DHT22;7545;52.092;7.006;2022-08-21T05:23:30;16.70;99.90
14908;DHT22;7545;52.092;7.006;2022-08-21T05:25:56;16.70;99.90
14908;DHT22;7545;52.092;7.006;2022-08-21T05:28:22;16.70;99.90
14908;DHT22;7545;52.092;7.006;2022-08-21T05:30:49;16.80;99.90
14908;DHT22;7545;52.092;7.006;2022-08-21T05:33:14;16.80;99.90
14908;DHT22;7545;52.092;7.006;2022-08-21T05:35:40;16.80;99.90
14908;DHT22;7545;52.092;7.006;2022-08-21T05:38:06;16.80;99.90
14908;DHT22;7545;52.092;7.006;2022-08-21T05:40:33;16.90;99.90
14908;DHT22;7545;52.092;7.006;2022-08-21T05:42:58;16.90;99.90
14908;DHT22;7545;52.092;7.006;2022-08-21T05:45:32;16.90;99.90
14908;DHT22;7545;52.092;7.006;2022-08-21T05:48:04;16.90;99.90
14908;DHT22;7545;52.092;7.006;2022-08-21T05:50:30;16.90;99.90
14908;DHT22;7545;52.092;7.006;2022-08-21T05:52:56;16.90;99.90
14908;DHT22;7545;52.092;7.006;2022-08-21T05:55:22;16.90;99.90
14908;DHT22;7545;52.092;7.006;2022-08-21T05:57:47;16.90;99.90
14908;DHT22;7545;52.092;7.006;2022-08-21T06:00:13;16.90;99.90
14908;DHT22;7545;52.092;7.006;2022-08-21T06:02:40;17.00;99.90
14908;DHT22;7545;52.092;7.006;2022-08-21T06:05:06;17.00;99.90
14908;DHT22;7545;52.092;7.006;2022-08-21T06:07:32;17.00;99.90
14908;DHT22;7545;52.092;7.006;2022-08-21T06:09:58;17.10;99.90
14908;DHT22;7545;52.092;7.006;2022-08-21T06:12:23;17.10;99.90
14908;DHT22;7545;52.092;7.006;2022-08-21T06:14:50;17.10;99.90
14908;DHT22;7545;52.092;7.006;2022-08-21T06:17:17;17.10;99.90
14908;DHT22;7545;52.092;7.006;2022-08-21T06:19:43;17.20;99.90
14908;DHT22;7545;52.092;7.006;2022-08-21T06:22:09;17.20;99.90
14908;DHT22;7545;52.092;7.006;2022-08-21T06:24:35;17.20;99.90
14908;DHT22;7545;52.092;7.006;2022-08-21T06:27:05;17.20;99.90
14908;DHT22;7545;52.092;7.006;2022-08-21T06:29:33;17.30;99.90
14908;DHT22;7545;52.092;7.006;2022-08-21T06:31:58;17.30;99.90
14908;DHT22;7545;52.092;7.006;2022-08-21T06:34:24;17.30;99.90
14908;DHT22;7545;52.092;7.006;2022-08-21T06:36:50;17.40;99.90
14908;DHT22;7545;52.092;7.006;2022-08-21T06:39:15;17.40;99.90
14908;DHT22;7545;52.092;7.006;2022-08-21T06:41:41;17.40;99.90
14908;DHT22;7545;52.092;7.006;2022-08-21T06:44:06;17.50;99.90
14908;DHT22;7545;52.092;7.006;2022-08-21T06:46:32;17.50;99.90
14908;DHT22;7545;52.092;7.006;2022-08-21T06:48:58;17.60;99.90
14908;DHT22;7545;52.092;7.006;2022-08-21T06:51:25;17.60;99.90
14908;DHT22;7545;52.092;7.006;2022-08-21T06:53:51;17.60;99.90
14908;DHT22;7545;52.092;7.006;2022-08-21T06:56:17;17.70;99.90
14908;DHT22;7545;52.092;7.006;2022-08-21T06:58:43;17.70;99.90
14908;DHT22;7545;52.092;7.006;2022-08-21T07:01:08;17.80;99.90
14908;DHT22;7545;52.092;7.006;2022-08-21T07:03:37;17.90;99.90
14908;DHT22;7545;52.092;7.006;2022-08-21T07:06:05;17.90;99.90
14908;DHT22;7545;52.092;7.006;2022-08-21T07:08:31;17.90;99.90
14908;DHT22;7545;52.092;7.006;2022-08-21T07:10:59;18.00;99.90
14908;DHT22;7545;52.092;7.006;2022-08-21T07:13:26;18.00;99.90
14908;DHT22;7545;52.092;7.006;2022-08-21T07:15:51;18.00;99.90
14908;DHT22;7545;52.092;7.006;2022-08-21T07:18:17;18.10;99.90
14908;DHT22;7545;52.092;7.006;2022-08-21T07:20:43;18.20;99.90
14908;DHT22;7545;52.092;7.006;2022-08-21T07:23:15;18.20;99.90
14908;DHT22;7545;52.092;7.006;2022-08-21T07:25:45;18.30;99.90
14908;DHT22;7545;52.092;7.006;2022-08-21T07:28:11;18.30;99.90
14908;DHT22;7545;52.092;7.006;2022-08-21T07:30:36;18.40;99.90
14908;DHT22;7545;52.092;7.006;2022-08-21T07:33:02;18.40;99.90
14908;DHT22;7545;52.092;7.006;2022-08-21T07:35:28;18.50;99.90
14908;DHT22;7545;52.092;7.006;2022-08-21T07:37:53;18.50;99.90
14908;DHT22;7545;52.092;7.006;2022-08-21T07:40:19;18.60;99.90
14908;DHT22;7545;52.092;7.006;2022-08-21T07:42:47;18.80;99.90
14908;DHT22;7545;52.092;7.006;2022-08-21T07:45:15;18.90;99.90
14908;DHT22;7545;52.092;7.006;2022-08-21T07:47:41;18.90;99.90
14908;DHT22;7545;52.092;7.006;2022-08-21T07:50:07;19.00;99.90
14908;DHT22;7545;52.092;7.006;2022-08-21T07:52:33;19.10;99.90
14908;DHT22;7545;52.092;7.006;2022-08-21T07:54:59;19.20;99.90
14908;DHT22;7545;52.092;7.006;2022-08-21T07:57:25;19.20;99.90
14908;DHT22;7545;52.092;7.006;2022-08-21T07:59:50;19.30;99.90
14908;DHT22;7545;52.092;7.006;2022-08-21T08:02:24;19.40;99.90
14908;DHT22;7545;52.092;7.006;2022-08-21T08:04:50;19.40;99.90
14908;DHT22;7545;52.092;7.006;2022-08-21T08:07:16;19.40;99.90
14908;DHT22;7545;52.092;7.006;2022-08-21T08:09:42;19.50;99.90
14908;DHT22;7545;52.092;7.006;2022-08-21T08:12:07;19.50;99.90
14908;DHT22;7545;52.092;7.006;2022-08-21T08:14:33;19.60;99.90
14908;DHT22;7545;52.092;7.006;2022-08-21T08:16:59;19.60;99.90
14908;DHT22;7545;52.092;7.006;2022-08-21T08:19:24;19.70;99.90
14908;DHT22;7545;52.092;7.006;2022-08-21T08:21:50;19.70;99.90
14908;DHT22;7545;52.092;7.006;2022-08-21T08:24:16;19.70;99.90
14908;DHT22;7545;52.092;7.006;2022-08-21T08:26:41;19.70;99.90
14908;DHT22;7545;52.092;7.006;2022-08-21T08:29:07;19.80;99.90
14908;DHT22;7545;52.092;7.006;2022-08-21T08:31:32;19.80;99.90
14908;DHT22;7545;52.092;7.006;2022-08-21T08:33:59;19.80;99.90
14908;DHT22;7545;52.092;7.006;2022-08-21T08:36:32;19.90;99.90
14908;DHT22;7545;52.092;7.006;2022-08-21T08:38:59;19.90;99.90
14908;DHT22;7545;52.092;7.006;2022-08-21T08:41:26;20.00;99.90
14908;DHT22;7545;52.092;7.006;2022-08-21T08:43:55;20.00;99.90
14908;DHT22;7545;52.092;7.006;2022-08-21T08:46:36;20.10;99.90
14908;DHT22;7545;52.092;7.006;2022-08-21T08:51:48;20.10;99.90
14908;DHT22;7545;52.092;7.006;2022-08-21T08:54:34;20.10;99.90
14908;DHT22;7545;52.092;7.006;2022-08-21T08:57:03;20.20;99.90
14908;DHT22;7545;52.092;7.006;2022-08-21T08:59:44;20.20;99.90
14908;DHT22;7545;52.092;7.006;2022-08-21T09:02:12;20.20;99.90
14908;DHT22;7545;52.092;7.006;2022-08-21T09:04:38;20.30;99.90
14908;DHT22;7545;52.092;7.006;2022-08-21T09:10:11;20.40;99.90
14908;DHT22;7545;52.092;7.006;2022-08-21T09:15:57;20.50;99.90
14908;DHT22;7545;52.092;7.006;2022-08-21T09:21:30;20.60;99.90
14908;DHT22;7545;52.092;7.006;2022-08-21T09:24:18;20.70;99.90
14908;DHT22;7545;52.092;7.006;2022-08-21T09:29:27;20.80;99.90
14908;DHT22;7545;52.092;7.006;2022-08-21T09:31:55;20.80;99.90
14908;DHT22;7545;52.092;7.006;2022-08-21T09:34:31;20.80;99.90
14908;DHT22;7545;52.092;7.006;2022-08-21T09:36:57;20.90;99.90
14908;DHT22;7545;52.092;7.006;2022-08-21T09:39:29;21.00;99.90
14908;DHT22;7545;52.092;7.006;2022-08-21T09:42:01;21.10;99.90
14908;DHT22;7545;52.092;7.006;2022-08-21T09:44:31;21.10;99.90
14908;DHT22;7545;52.092;7.006;2022-08-21T09:46:58;21.20;99.90
14908;DHT22;7545;52.092;7.006;2022-08-21T09:49:32;21.30;99.90
14908;DHT22;7545;52.092;7.006;2022-08-21T09:51:58;21.40;99.90
14908;DHT22;7545;52.092;7.006;2022-08-21T09:54:34;21.40;99.90
14908;DHT22;7545;52.092;7.006;2022-08-21T09:59:51;21.60;99.90
14908;DHT22;7545;52.092;7.006;2022-08-21T10:05:06;21.70;99.90
14908;DHT22;7545;52.092;7.006;2022-08-21T10:07:37;21.80;99.90
14908;DHT22;7545;52.092;7.006;2022-08-21T10:10:04;21.90;99.90
14908;DHT22;7545;52.092;7.006;2022-08-21T10:15:51;22.10;99.90
14908;DHT22;7545;52.092;7.006;2022-08-21T10:23:54;22.50;99.90
14908;DHT22;7545;52.092;7.006;2022-08-21T10:29:17;22.60;99.90
14908;DHT22;7545;52.092;7.006;2022-08-21T10:40:44;22.90;99.90
14908;DHT22;7545;52.092;7.006;2022-08-21T10:46:07;23.10;99.90
14908;DHT22;7545;52.092;7.006;2022-08-21T10:51:42;23.20;99.90
14908;DHT22;7545;52.092;7.006;2022-08-21T10:54:42;23.30;99.90
14908;DHT22;7545;52.092;7.006;2022-08-21T10:57:16;23.30;99.90
14908;DHT22;7545;52.092;7.006;2022-08-21T10:59:52;23.50;99.90
14908;DHT22;7545;52.092;7.006;2022-08-21T11:02:39;23.50;99.90
14908;DHT22;7545;52.092;7.006;2022-08-21T11:05:18;23.70;99.90
14908;DHT22;7545;52.092;7.006;2022-08-21T11:07:51;23.60;99.90
14908;DHT22;7545;52.092;7.006;2022-08-21T11:10:26;23.70;99.90
14908;DHT22;7545;52.092;7.006;2022-08-21T11:12:58;23.70;99.90
14908;DHT22;7545;52.092;7.006;2022-08-21T11:15:43;23.80;99.90
14908;DHT22;7545;52.092;7.006;2022-08-21T11:18:34;23.90;99.90
14908;DHT22;7545;52.092;7.006;2022-08-21T11:29:24;24.20;99.90
14908;DHT22;7545;52.092;7.006;2022-08-21T11:40:26;24.20;99.90
14908;DHT22;7545;52.092;7.006;2022-08-21T11:43:15;24.20;99.90
14908;DHT22;7545;52.092;7.006;2022-08-21T11:48:40;24.40;99.90
14908;DHT22;7545;52.092;7.006;2022-08-21T11:51:17;24.30;99.90
14908;DHT22;7545;52.092;7.006;2022-08-21T11:56:40;24.20;99.90
14908;DHT22;7545;52.092;7.006;2022-08-21T11:59:17;24.30;99.90
14908;DHT22;7545;52.092;7.006;2022-08-21T12:01:46;24.30;99.90
14908;DHT22;7545;52.092;7.006;2022-08-21T12:04:29;24.30;99.90
14908;DHT22;7545;52.092;7.006;2022-08-21T12:06:56;24.30;99.90
14908;DHT22;7545;52.092;7.006;2022-08-21T12:09:35;24.30;99.90
14908;DHT22;7545;52.092;7.006;2022-08-21T12:15:25;24.40;99.90
14908;DHT22;7545;52.092;7.006;2022-08-21T12:17:53;24.50;99.90
14908;DHT22;7545;52.092;7.006;2022-08-21T12:23:32;24.50;99.90
14908;DHT22;7545;52.092;7.006;2022-08-21T12:28:36;24.50;99.90
14908;DHT22;7545;52.092;7.006;2022-08-21T12:31:01;24.50;99.90
14908;DHT22;7545;52.092;7.006;2022-08-21T12:33:34;24.60;99.90
14908;DHT22;7545;52.092;7.006;2022-08-21T12:36:15;24.70;99.90
14908;DHT22;7545;52.092;7.006;2022-08-21T12:38:59;24.80;99.90
14908;DHT22;7545;52.092;7.006;2022-08-21T12:41:28;25.00;99.90
14908;DHT22;7545;52.092;7.006;2022-08-21T12:44:15;25.00;99.90
14908;DHT22;7545;52.092;7.006;2022-08-21T12:46:51;25.10;99.90
14908;DHT22;7545;52.092;7.006;2022-08-21T12:49:37;25.20;99.90
14908;DHT22;7545;52.092;7.006;2022-08-21T12:52:38;25.20;99.90
14908;DHT22;7545;52.092;7.006;2022-08-21T12:55:06;25.30;99.90
14908;DHT22;7545;52.092;7.006;2022-08-21T12:57:36;25.30;99.90
14908;DHT22;7545;52.092;7.006;2022-08-21T13:00:06;25.40;99.90
14908;DHT22;7545;52.092;7.006;2022-08-21T13:02:38;25.50;99.90
14908;DHT22;7545;52.092;7.006;2022-08-21T13:05:13;25.50;99.90
14908;DHT22;7545;52.092;7.006;2022-08-21T13:07:44;25.60;99.90
14908;DHT22;7545;52.092;7.006;2022-08-21T13:10:26;25.70;99.90
14908;DHT22;7545;52.092;7.006;2022-08-21T13:12:59;25.80;99.90
14908;DHT22;7545;52.092;7.006;2022-08-21T13:15:29;25.90;99.90
14908;DHT22;7545;52.092;7.006;2022-08-21T13:17:55;26.00;99.90
14908;DHT22;7545;52.092;7.006;2022-08-21T13:20:31;26.00;99.90
14908;DHT22;7545;52.092;7.006;2022-08-21T13:22:57;26.10;99.90
14908;DHT22;7545;52.092;7.006;2022-08-21T13:25:28;26.10;99.90
14908;DHT22;7545;52.092;7.006;2022-08-21T13:28:07;26.10;99.90
14908;DHT22;7545;52.092;7.006;2022-08-21T13:30:34;26.10;99.90
14908;DHT22;7545;52.092;7.006;2022-08-21T13:33:05;26.10;99.90
14908;DHT22;7545;52.092;7.006;2022-08-21T13:36:07;26.20;99.90
14908;DHT22;7545;52.092;7.006;2022-08-21T13:38:35;26.40;99.90
14908;DHT22;7545;52.092;7.006;2022-08-21T13:41:08;26.30;99.90
14908;DHT22;7545;52.092;7.006;2022-08-21T13:43:37;26.30;99.90
14908;DHT22;7545;52.092;7.006;2022-08-21T13:46:08;26.30;99.90
14908;DHT22;7545;52.092;7.006;2022-08-21T13:48:35;26.30;99.90
14908;DHT22;7545;52.092;7.006;2022-08-21T13:51:02;26.40;99.90
14908;DHT22;7545;52.092;7.006;2022-08-21T13:53:34;26.30;99.90
14908;DHT22;7545;52.092;7.006;2022-08-21T13:56:02;26.30;99.90
14908;DHT22;7545;52.092;7.006;2022-08-21T13:58:46;26.40;99.90
14908;DHT22;7545;52.092;7.006;2022-08-21T14:04:05;26.40;99.90
14908;DHT22;7545;52.092;7.006;2022-08-21T14:06:36;26.50;99.90
14908;DHT22;7545;52.092;7.006;2022-08-21T14:09:13;26.50;99.90
14908;DHT22;7545;52.092;7.006;2022-08-21T14:11:45;26.50;99.90
14908;DHT22;7545;52.092;7.006;2022-08-21T14:14:23;26.50;99.90
14908;DHT22;7545;52.092;7.006;2022-08-21T14:16:59;26.40;99.90
14908;DHT22;7545;52.092;7.006;2022-08-21T14:19:45;26.40;99.90
14908;DHT22;7545;52.092;7.006;2022-08-21T14:25:11;26.30;99.90
14908;DHT22;7545;52.092;7.006;2022-08-21T14:27:43;26.30;99.90
14908;DHT22;7545;52.092;7.006;2022-08-21T14:30:17;26.20;99.90
14908;DHT22;7545;52.092;7.006;2022-08-21T14:32:44;26.10;99.90
14908;DHT22;7545;52.092;7.006;2022-08-21T14:35:10;26.10;99.90
14908;DHT22;7545;52.092;7.006;2022-08-21T14:37:36;26.10;99.90
14908;DHT22;7545;52.092;7.006;2022-08-21T14:40:03;26.10;99.90
14908;DHT22;7545;52.092;7.006;2022-08-21T14:42:30;26.20;99.90
14908;DHT22;7545;52.092;7.006;2022-08-21T14:45:01;26.20;99.90
14908;DHT22;7545;52.092;7.006;2022-08-21T14:47:27;26.30;99.90
14908;DHT22;7545;52.092;7.006;2022-08-21T14:49:53;26.30;99.90
14908;DHT22;7545;52.092;7.006;2022-08-21T14:52:20;26.30;99.90
14908;DHT22;7545;52.092;7.006;2022-08-21T14:54:46;26.20;99.90
14908;DHT22;7545;52.092;7.006;2022-08-21T14:57:11;26.20;99.90
14908;DHT22;7545;52.092;7.006;2022-08-21T14:59:38;26.20;99.90
14908;DHT22;7545;52.092;7.006;2022-08-21T15:02:05;26.20;99.90
14908;DHT22;7545;52.092;7.006;2022-08-21T15:04:32;26.10;99.90
14908;DHT22;7545;52.092;7.006;2022-08-21T15:06:58;26.10;99.90
14908;DHT22;7545;52.092;7.006;2022-08-21T15:09:24;26.00;99.90
14908;DHT22;7545;52.092;7.006;2022-08-21T15:11:52;26.10;99.90
14908;DHT22;7545;52.092;7.006;2022-08-21T15:14:21;26.10;99.90
14908;DHT22;7545;52.092;7.006;2022-08-21T15:16:48;26.20;99.90
14908;DHT22;7545;52.092;7.006;2022-08-21T15:19:14;26.20;99.90
14908;DHT22;7545;52.092;7.006;2022-08-21T15:21:40;26.20;99.90
14908;DHT22;7545;52.092;7.006;2022-08-21T15:24:05;26.20;99.90
14908;DHT22;7545;52.092;7.006;2022-08-21T15:26:31;26.20;99.90
14908;DHT22;7545;52.092;7.006;2022-08-21T15:28:59;26.20;99.90
14908;DHT22;7545;52.092;7.006;2022-08-21T15:31:24;26.10;99.50
14908;DHT22;7545;52.092;7.006;2022-08-21T15:33:50;26.10;99.50
14908;DHT22;7545;52.092;7.006;2022-08-21T15:36:16;26.00;99.60
14908;DHT22;7545;52.092;7.006;2022-08-21T15:38:44;25.90;99.50
14908;DHT22;7545;52.092;7.006;2022-08-21T15:41:10;26.00;99.70
14908;DHT22;7545;52.092;7.006;2022-08-21T15:43:47;26.00;99.90
14908;DHT22;7545;52.092;7.006;2022-08-21T15:46:15;26.00;99.50
14908;DHT22;7545;52.092;7.006;2022-08-21T15:48:42;25.90;99.30
14908;DHT22;7545;52.092;7.006;2022-08-21T15:51:11;25.90;99.40
14908;DHT22;7545;52.092;7.006;2022-08-21T15:53:38;25.80;99.60
14908;DHT22;7545;52.092;7.006;2022-08-21T15:56:09;25.80;99.60
14908;DHT22;7545;52.092;7.006;2022-08-21T15:58:38;25.70;99.80
14908;DHT22;7545;52.092;7.006;2022-08-21T16:01:04;25.70;99.90
14908;DHT22;7545;52.092;7.006;2022-08-21T16:03:29;25.70;99.90
14908;DHT22;7545;52.092;7.006;2022-08-21T16:05:55;25.70;99.90
14908;DHT22;7545;52.092;7.006;2022-08-21T16:08:22;25.70;99.90
14908;DHT22;7545;52.092;7.006;2022-08-21T16:10:49;25.70;99.90
14908;DHT22;7545;52.092;7.006;2022-08-21T16:13:19;25.70;99.90
14908;DHT22;7545;52.092;7.006;2022-08-21T16:15:47;25.70;99.90
14908;DHT22;7545;52.092;7.006;2022-08-21T16:18:13;25.70;99.90
14908;DHT22;7545;52.092;7.006;2022-08-21T16:20:39;25.70;99.70
14908;DHT22;7545;52.092;7.006;2022-08-21T16:23:04;25.60;99.60
14908;DHT22;7545;52.092;7.006;2022-08-21T16:25:30;25.50;99.50
14908;DHT22;7545;52.092;7.006;2022-08-21T16:28:00;25.50;99.70
14908;DHT22;7545;52.092;7.006;2022-08-21T16:30:28;25.40;99.80
14908;DHT22;7545;52.092;7.006;2022-08-21T16:32:54;25.30;99.80
14908;DHT22;7545;52.092;7.006;2022-08-21T16:35:21;25.30;99.90
14908;DHT22;7545;52.092;7.006;2022-08-21T16:37:47;25.30;99.90
14908;DHT22;7545;52.092;7.006;2022-08-21T16:40:13;25.20;99.90
14908;DHT22;7545;52.092;7.006;2022-08-21T16:42:40;25.20;99.90
14908;DHT22;7545;52.092;7.006;2022-08-21T16:45:09;25.20;99.90
14908;DHT22;7545;52.092;7.006;2022-08-21T16:47:35;25.10;99.90
14908;DHT22;7545;52.092;7.006;2022-08-21T16:50:02;25.10;99.90
14908;DHT22;7545;52.092;7.006;2022-08-21T16:52:27;25.10;99.90
14908;DHT22;7545;52.092;7.006;2022-08-21T16:54:53;25.00;99.90
14908;DHT22;7545;52.092;7.006;2022-08-21T16:57:18;25.10;99.90
14908;DHT22;7545;52.092;7.006;2022-08-21T16:59:44;25.00;99.90
14908;DHT22;7545;52.092;7.006;2022-08-21T17:02:28;25.10;99.90
14908;DHT22;7545;52.092;7.006;2022-08-21T17:04:54;25.10;99.90
14908;DHT22;7545;52.092;7.006;2022-08-21T17:07:20;25.00;99.90
14908;DHT22;7545;52.092;7.006;2022-08-21T17:09:46;25.00;99.90
14908;DHT22;7545;52.092;7.006;2022-08-21T17:12:11;25.00;99.90
14908;DHT22;7545;52.092;7.006;2022-08-21T17:14:38;25.00;99.90
14908;DHT22;7545;52.092;7.006;2022-08-21T17:17:06;24.90;99.90
14908;DHT22;7545;52.092;7.006;2022-08-21T17:19:33;25.00;99.90